createdAt,value
2022-12-08T00:02:38.221Z,10.40
2022-12-08T00:07:59.054Z,10.50
2022-12-08T00:13:00.795Z,10.57
2022-12-08T00:18:03.818Z,10.61
2022-12-08T00:23:05.595Z,10.60
2022-12-08T00:28:07.355Z,10.45
2022-12-08T00:33:10.516Z,10.23
2022-12-08T00:38:12.303Z,9.65
2022-12-08T00:43:14.062Z,9.82
2022-12-08T00:48:17.144Z,10.10
2022-12-08T00:53:18.874Z,10.37
2022-12-08T00:58:20.639Z,10.36
2022-12-08T01:03:23.903Z,10.31
2022-12-08T01:08:25.799Z,9.67
2022-12-08T01:13:27.955Z,9.63
2022-12-08T01:18:31.069Z,8.69
2022-12-08T01:23:32.847Z,8.57
2022-12-08T01:28:34.565Z,8.71
2022-12-08T01:33:37.631Z,8.66
2022-12-08T01:38:39.363Z,9.08
2022-12-08T01:43:50.911Z,9.17
2022-12-08T01:48:55.210Z,9.20
2022-12-08T01:53:56.939Z,8.86
2022-12-08T01:58:58.669Z,8.82
2022-12-08T02:04:02.595Z,8.71
2022-12-08T02:09:04.410Z,8.54
2022-12-08T02:14:06.708Z,8.82
2022-12-08T02:19:31.444Z,8.86
2022-12-08T02:24:36.238Z,8.69
2022-12-08T02:30:16.001Z,8.68
2022-12-08T02:35:20.491Z,8.68
2022-12-08T02:40:23.531Z,8.59
2022-12-08T02:45:26.194Z,8.73
2022-12-08T02:50:29.372Z,8.91
2022-12-08T02:55:33.798Z,8.71
2022-12-08T03:00:38.621Z,8.71
2022-12-08T03:06:01.063Z,8.64
2022-12-08T03:11:04.137Z,8.62
2022-12-08T03:16:06.693Z,8.58
2022-12-08T03:21:10.104Z,8.91
2022-12-08T03:26:12.701Z,9.06
2022-12-08T03:31:14.631Z,9.03
2022-12-08T03:36:17.772Z,8.88
2022-12-08T03:41:19.668Z,8.54
2022-12-08T03:51:24.600Z,8.82
2022-12-08T03:56:28.346Z,8.36
2022-12-08T04:01:30.112Z,8.09
2022-12-08T04:06:33.287Z,8.05
2022-12-08T04:11:35.073Z,7.69
2022-12-08T04:16:36.900Z,8.44
2022-12-08T04:21:39.996Z,7.37
2022-12-08T04:26:41.837Z,7.39
2022-12-08T04:31:43.702Z,7.43
2022-12-08T04:36:46.818Z,7.70
2022-12-08T04:41:48.570Z,7.74
2022-12-08T04:46:50.345Z,7.96
2022-12-08T04:51:53.397Z,7.74
2022-12-08T04:56:55.122Z,8.18
2022-12-08T05:01:56.958Z,8.34
2022-12-08T05:07:00.120Z,8.33
2022-12-08T05:12:01.856Z,8.39
2022-12-08T05:17:09.127Z,8.35
2022-12-08T05:22:12.787Z,8.27
2022-12-08T05:27:14.537Z,8.02
2022-12-08T05:32:16.288Z,8.76
2022-12-08T05:37:19.369Z,8.67
2022-12-08T05:42:24.736Z,8.58
2022-12-08T05:47:28.153Z,8.64
2022-12-08T05:52:33.796Z,8.57
2022-12-08T05:57:35.643Z,8.52
2022-12-08T06:02:37.477Z,8.58
2022-12-08T06:07:40.731Z,8.44
2022-12-08T06:12:42.515Z,8.43
2022-12-08T06:17:44.252Z,8.46
2022-12-08T06:22:47.293Z,8.64
2022-12-08T06:27:49.162Z,8.73
2022-12-08T06:32:50.906Z,8.81
2022-12-08T06:37:54.034Z,8.60
2022-12-08T06:42:56.065Z,8.59
2022-12-08T06:47:57.820Z,8.41
2022-12-08T06:53:05.231Z,8.46
2022-12-08T06:58:07.501Z,8.53
2022-12-08T07:03:09.312Z,8.61
2022-12-08T07:08:12.661Z,8.61
2022-12-08T07:13:14.504Z,8.65
2022-12-08T07:18:16.722Z,8.62
2022-12-08T07:23:19.802Z,8.64
2022-12-08T07:28:21.514Z,8.76
2022-12-08T07:33:24.154Z,8.81
2022-12-08T07:38:27.326Z,8.80
2022-12-08T07:43:29.043Z,8.97
2022-12-08T07:48:30.738Z,8.93
2022-12-08T07:53:33.999Z,8.93
2022-12-08T07:58:35.791Z,9.05
2022-12-08T08:03:37.604Z,9.11
2022-12-08T08:08:40.785Z,9.16
2022-12-08T08:13:42.575Z,9.08
2022-12-08T08:18:46.465Z,9.09
2022-12-08T08:23:49.609Z,9.12
2022-12-08T08:28:51.373Z,9.10
2022-12-08T08:33:53.193Z,8.83
2022-12-08T08:38:56.311Z,8.86
2022-12-08T08:43:58.075Z,8.67
2022-12-08T08:48:59.828Z,8.90
2022-12-08T08:54:02.940Z,9.22
2022-12-08T08:59:04.742Z,8.93
2022-12-08T09:04:06.600Z,8.77
2022-12-08T09:09:09.811Z,8.61
2022-12-08T09:14:11.878Z,8.64
2022-12-08T09:19:13.666Z,8.74
2022-12-08T09:24:16.793Z,8.91
2022-12-08T09:29:18.627Z,8.64
2022-12-08T09:34:20.519Z,8.93
2022-12-08T09:39:23.635Z,9.00
2022-12-08T09:44:46.765Z,8.94
2022-12-08T09:49:52.500Z,9.02
2022-12-08T09:54:55.985Z,9.08
2022-12-08T09:59:58.960Z,9.17
2022-12-08T10:05:00.822Z,9.28
2022-12-08T10:10:08.364Z,9.15
2022-12-08T10:15:22.880Z,9.25
2022-12-08T10:20:25.576Z,9.43
2022-12-08T10:25:30.347Z,9.38
2022-12-08T10:30:32.085Z,9.50
2022-12-08T10:35:43.128Z,9.57
2022-12-08T10:40:46.185Z,9.71
2022-12-08T10:45:47.923Z,9.77
2022-12-08T10:50:54.031Z,9.87
2022-12-08T10:56:07.960Z,9.65
2022-12-08T11:01:12.152Z,9.20
2022-12-08T11:06:16.431Z,9.22
2022-12-08T11:11:23.176Z,9.32
2022-12-08T11:16:29.447Z,9.56
2022-12-08T11:21:35.694Z,9.44
2022-12-08T11:26:38.715Z,9.21
2022-12-08T11:31:41.543Z,9.27
2022-12-08T11:36:43.288Z,9.22
2022-12-08T11:41:46.448Z,9.27
2022-12-08T11:46:50.005Z,9.11
2022-12-08T11:51:53.440Z,9.19
2022-12-08T11:56:57.266Z,9.21
2022-12-08T12:01:59.376Z,9.17
2022-12-08T12:07:42.340Z,9.26
2022-12-08T12:12:57.251Z,9.20
2022-12-08T12:18:00.030Z,9.23
2022-12-08T12:23:03.508Z,9.22
2022-12-08T12:28:07.031Z,9.73
2022-12-08T12:33:13.349Z,9.99
2022-12-08T12:38:39.196Z,10.00
2022-12-08T12:44:23.968Z,9.82
2022-12-08T12:50:14.754Z,9.41
2022-12-08T12:55:24.050Z,9.38
2022-12-08T13:00:27.400Z,9.41
2022-12-08T13:05:29.836Z,9.29
2022-12-08T13:10:32.376Z,9.27
2022-12-08T13:15:37.085Z,9.23
2022-12-08T13:20:42.296Z,9.97
2022-12-08T13:25:49.103Z,9.11
2022-12-08T13:30:53.072Z,9.15
2022-12-08T13:36:18.587Z,8.92
2022-12-08T13:41:22.097Z,8.91
2022-12-08T13:57:23.916Z,8.73
2022-12-08T14:02:28.695Z,8.70
2022-12-08T14:07:31.434Z,8.51
2022-12-08T14:12:33.143Z,8.48
2022-12-08T14:17:36.191Z,8.33
2022-12-08T14:22:38.961Z,8.26
2022-12-08T14:27:40.680Z,8.28
2022-12-08T14:32:44.880Z,8.13
2022-12-08T14:37:47.946Z,8.17
2022-12-08T14:42:51.189Z,8.09
2022-12-08T14:47:54.256Z,8.17
2022-12-08T14:52:56.011Z,8.12
2022-12-08T14:57:58.206Z,8.30
2022-12-08T15:03:05.224Z,8.21
2022-12-08T15:08:06.966Z,8.22
2022-12-08T15:13:21.921Z,8.05
2022-12-08T15:18:30.121Z,8.11
2022-12-08T15:23:32.950Z,8.20
2022-12-08T15:28:35.799Z,8.36
2022-12-08T15:33:39.250Z,8.53
2022-12-08T15:38:40.980Z,8.62
2022-12-08T15:43:42.711Z,8.80
2022-12-08T15:48:45.797Z,8.57
2022-12-08T15:53:47.487Z,8.89
2022-12-08T15:58:54.126Z,8.97
2022-12-08T16:09:21.311Z,8.65
2022-12-08T16:15:38.643Z,8.55
2022-12-08T16:19:46.423Z,8.62
2022-12-08T16:24:48.162Z,8.63
2022-12-08T16:29:50.131Z,8.58
2022-12-08T16:34:53.162Z,8.51
2022-12-08T16:39:57.014Z,8.31
2022-12-08T16:44:58.795Z,8.30
2022-12-08T16:50:03.757Z,8.20
2022-12-08T16:55:08.148Z,8.03
2022-12-08T17:00:11.576Z,8.04
2022-12-08T17:05:15.499Z,8.25
2022-12-08T17:10:18.533Z,8.38
2022-12-08T17:15:21.275Z,7.91
2022-12-08T17:20:25.693Z,8.28
2022-12-08T17:25:27.475Z,7.88
2022-12-08T17:30:29.228Z,7.97
2022-12-08T17:35:32.391Z,7.86
2022-12-08T17:40:34.109Z,7.60
2022-12-08T17:45:39.881Z,7.50
2022-12-08T17:50:43.907Z,7.46
2022-12-08T17:55:51.518Z,7.63
2022-12-08T18:00:53.357Z,7.62
2022-12-08T18:05:56.436Z,7.43
2022-12-08T18:10:58.187Z,7.16
2022-12-08T18:15:59.984Z,6.94
2022-12-08T18:21:03.141Z,7.06
2022-12-08T18:26:05.134Z,6.92
2022-12-08T18:31:08.464Z,6.69
2022-12-08T18:36:13.765Z,6.76
2022-12-08T18:41:16.631Z,6.54
2022-12-08T18:46:18.409Z,6.51
2022-12-08T18:51:22.465Z,6.28
2022-12-08T18:56:25.045Z,6.17
2022-12-08T19:01:26.960Z,6.14
2022-12-08T19:06:30.177Z,6.15
2022-12-08T19:11:31.934Z,6.21
2022-12-08T19:16:33.771Z,6.36
2022-12-08T19:21:42.883Z,6.40
2022-12-08T19:26:47.781Z,6.41
2022-12-08T19:31:49.653Z,6.56
2022-12-08T19:36:52.839Z,6.57
2022-12-08T19:42:12.949Z,6.52
2022-12-08T19:47:14.902Z,6.60
2022-12-08T19:52:18.077Z,6.53
2022-12-08T19:57:20.386Z,6.56
2022-12-08T20:02:22.167Z,6.34
2022-12-08T20:07:25.397Z,6.62
2022-12-08T20:12:27.143Z,6.51
2022-12-08T20:17:28.834Z,6.73
2022-12-08T20:22:31.883Z,6.77
2022-12-08T20:27:33.632Z,6.97
2022-12-08T20:32:35.387Z,5.97
2022-12-08T20:37:38.432Z,6.44
2022-12-08T20:42:40.203Z,6.52
2022-12-08T20:47:41.965Z,6.48
2022-12-08T20:52:45.141Z,6.48
2022-12-08T20:57:46.842Z,6.53
2022-12-08T21:02:54.782Z,6.51
2022-12-08T21:07:59.537Z,6.51
2022-12-08T21:13:05.474Z,6.61
2022-12-08T21:18:07.454Z,6.66
2022-12-08T21:23:10.765Z,6.44
2022-12-08T21:28:12.669Z,6.46
2022-12-08T21:33:14.575Z,6.39
2022-12-08T21:38:18.162Z,6.20
2022-12-08T21:43:20.121Z,6.15
2022-12-08T21:48:21.980Z,6.22
2022-12-08T21:53:26.489Z,6.05
2022-12-08T21:58:28.547Z,5.78
2022-12-08T22:03:30.720Z,5.75
2022-12-08T22:08:34.022Z,5.79
2022-12-08T22:13:36.353Z,5.74
2022-12-08T22:18:38.287Z,5.81
2022-12-08T22:23:41.692Z,6.06
2022-12-08T22:28:44.425Z,5.98
2022-12-08T22:33:46.483Z,6.13
2022-12-08T22:38:49.892Z,6.06
2022-12-08T22:43:51.838Z,6.01
2022-12-08T22:48:54.176Z,6.03
2022-12-08T22:53:57.500Z,5.89
2022-12-08T22:58:59.461Z,5.34
2022-12-08T23:04:01.526Z,5.25
2022-12-08T23:09:05.392Z,5.55
2022-12-08T23:14:07.411Z,5.51
2022-12-08T23:19:09.589Z,5.44
2022-12-08T23:24:12.958Z,5.33
2022-12-08T23:29:15.450Z,5.38
2022-12-08T23:34:17.461Z,5.57
2022-12-08T23:39:24.121Z,5.48
2022-12-08T23:44:26.031Z,5.57
2022-12-08T23:49:28.085Z,5.32
2022-12-08T23:54:31.335Z,5.24
2022-12-08T23:59:33.189Z,5.24
